sensor_id;sensor_type;location;lat;lon;timestamp;temperature;humidity
26107;DHT22;13866;50.748;12.630;2024-01-07T00:01:23;-0.60;99.90
26107;DHT22;13866;50.748;12.630;2024-01-07T00:03:48;-0.60;99.90
26107;DHT22;13866;50.748;12.630;2024-01-07T00:06:13;-0.60;99.90
26107;DHT22;13866;50.748;12.630;2024-01-07T00:08:39;-0.60;99.90
26107;DHT22;13866;50.748;12.630;2024-01-07T00:11:04;-0.60;99.90
26107;DHT22;13866;50.748;12.630;2024-01-07T00:13:30;-0.70;99.90
26107;DHT22;13866;50.748;12.630;2024-01-07T00:15:55;-0.70;99.90
26107;DHT22;13866;50.748;12.630;2024-01-07T00:18:21;-0.70;99.90
26107;DHT22;13866;50.748;12.630;2024-01-07T00:20:47;-0.80;99.90
26107;DHT22;13866;50.748;12.630;2024-01-07T00:23:13;-0.80;99.90
26107;DHT22;13866;50.748;12.630;2024-01-07T00:25:38;-0.90;99.90
26107;DHT22;13866;50.748;12.630;2024-01-07T00:28:04;-0.80;99.90
26107;DHT22;13866;50.748;12.630;2024-01-07T00:30:29;-0.80;99.90
26107;DHT22;13866;50.748;12.630;2024-01-07T00:32:55;-0.80;99.90
26107;DHT22;13866;50.748;12.630;2024-01-07T00:35:20;-0.90;99.90
26107;DHT22;13866;50.748;12.630;2024-01-07T00:37:46;-0.90;99.90
26107;DHT22;13866;50.748;12.630;2024-01-07T00:40:11;-1.00;99.90
26107;DHT22;13866;50.748;12.630;2024-01-07T00:42:37;-1.00;99.90
26107;DHT22;13866;50.748;12.630;2024-01-07T00:45:03;-1.10;99.90
26107;DHT22;13866;50.748;12.630;2024-01-07T00:47:28;-1.10;99.90
26107;DHT22;13866;50.748;12.630;2024-01-07T00:49:54;-1.10;99.90
26107;DHT22;13866;50.748;12.630;2024-01-07T00:52:19;-1.20;99.90
26107;DHT22;13866;50.748;12.630;2024-01-07T00:54:46;-1.20;99.90
26107;DHT22;13866;50.748;12.630;2024-01-07T00:57:11;-1.20;99.90
26107;DHT22;13866;50.748;12.630;2024-01-07T00:59:38;-1.20;99.90
26107;DHT22;13866;50.748;12.630;2024-01-07T01:02:03;-1.20;99.90
26107;DHT22;13866;50.748;12.630;2024-01-07T01:04:29;-1.20;99.90
26107;DHT22;13866;50.748;12.630;2024-01-07T01:06:54;-1.30;99.90
26107;DHT22;13866;50.748;12.630;2024-01-07T01:09:20;-1.30;99.90
26107;DHT22;13866;50.748;12.630;2024-01-07T01:11:45;-1.40;99.90
26107;DHT22;13866;50.748;12.630;2024-01-07T01:14:11;-1.30;99.90
26107;DHT22;13866;50.748;12.630;2024-01-07T01:16:36;-1.30;99.90
26107;DHT22;13866;50.748;12.630;2024-01-07T01:19:01;-1.40;99.90
26107;DHT22;13866;50.748;12.630;2024-01-07T01:21:27;-1.40;99.90
26107;DHT22;13866;50.748;12.630;2024-01-07T01:23:54;-1.40;99.90
26107;DHT22;13866;50.748;12.630;2024-01-07T01:26:19;-1.40;99.90
26107;DHT22;13866;50.748;12.630;2024-01-07T01:28:45;-1.40;99.90
26107;DHT22;13866;50.748;12.630;2024-01-07T01:31:13;-1.40;99.90
26107;DHT22;13866;50.748;12.630;2024-01-07T01:33:39;-1.30;99.90
26107;DHT22;13866;50.748;12.630;2024-01-07T01:36:05;-1.40;99.90
26107;DHT22;13866;50.748;12.630;2024-01-07T01:38:31;-1.30;99.90
26107;DHT22;13866;50.748;12.630;2024-01-07T01:40:57;-1.20;99.90
26107;DHT22;13866;50.748;12.630;2024-01-07T01:43:26;-1.30;99.90
26107;DHT22;13866;50.748;12.630;2024-01-07T01:45:53;-1.30;99.90
26107;DHT22;13866;50.748;12.630;2024-01-07T01:48:19;-1.30;99.90
26107;DHT22;13866;50.748;12.630;2024-01-07T01:50:46;-1.30;99.90
26107;DHT22;13866;50.748;12.630;2024-01-07T01:53:12;-1.40;99.90
26107;DHT22;13866;50.748;12.630;2024-01-07T01:55:37;-1.30;99.90
26107;DHT22;13866;50.748;12.630;2024-01-07T01:58:04;-1.20;99.90
26107;DHT22;13866;50.748;12.630;2024-01-07T02:00:30;-1.30;99.90
26107;DHT22;13866;50.748;12.630;2024-01-07T02:02:55;-1.30;99.90
26107;DHT22;13866;50.748;12.630;2024-01-07T02:05:21;-1.40;99.90
26107;DHT22;13866;50.748;12.630;2024-01-07T02:07:47;-1.50;99.90
26107;DHT22;13866;50.748;12.630;2024-01-07T02:10:13;-1.50;99.90
26107;DHT22;13866;50.748;12.630;2024-01-07T02:12:38;-1.50;99.90
26107;DHT22;13866;50.748;12.630;2024-01-07T02:15:04;-1.50;99.90
26107;DHT22;13866;50.748;12.630;2024-01-07T02:17:30;-1.50;99.90
26107;DHT22;13866;50.748;12.630;2024-01-07T02:19:56;-1.50;99.90
26107;DHT22;13866;50.748;12.630;2024-01-07T02:22:21;-1.60;99.90
26107;DHT22;13866;50.748;12.630;2024-01-07T02:24:47;-1.60;99.90
26107;DHT22;13866;50.748;12.630;2024-01-07T02:27:12;-1.70;99.90
26107;DHT22;13866;50.748;12.630;2024-01-07T02:29:38;-1.60;99.90
26107;DHT22;13866;50.748;12.630;2024-01-07T02:32:04;-1.60;99.90
26107;DHT22;13866;50.748;12.630;2024-01-07T02:34:29;-1.60;99.90
26107;DHT22;13866;50.748;12.630;2024-01-07T02:36:55;-1.70;99.90
26107;DHT22;13866;50.748;12.630;2024-01-07T02:39:20;-1.70;99.90
26107;DHT22;13866;50.748;12.630;2024-01-07T02:41:46;-1.70;99.90
26107;DHT22;13866;50.748;12.630;2024-01-07T02:44:11;-1.70;99.90
26107;DHT22;13866;50.748;12.630;2024-01-07T02:46:37;-1.80;99.90
26107;DHT22;13866;50.748;12.630;2024-01-07T02:49:02;-1.80;99.90
26107;DHT22;13866;50.748;12.630;2024-01-07T02:51:28;-1.80;99.90
26107;DHT22;13866;50.748;12.630;2024-01-07T02:53:53;-1.80;99.90
26107;DHT22;13866;50.748;12.630;2024-01-07T02:56:19;-1.90;99.90
26107;DHT22;13866;50.748;12.630;2024-01-07T02:58:44;-1.90;99.90
26107;DHT22;13866;50.748;12.630;2024-01-07T03:01:10;-1.90;99.90
26107;DHT22;13866;50.748;12.630;2024-01-07T03:03:36;-1.80;99.90
26107;DHT22;13866;50.748;12.630;2024-01-07T03:06:01;-1.80;99.90
26107;DHT22;13866;50.748;12.630;2024-01-07T03:08:27;-1.80;99.90
26107;DHT22;13866;50.748;12.630;2024-01-07T03:10:53;-1.80;99.90
26107;DHT22;13866;50.748;12.630;2024-01-07T03:13:18;-1.90;99.90
26107;DHT22;13866;50.748;12.630;2024-01-07T03:15:44;-1.90;99.90
26107;DHT22;13866;50.748;12.630;2024-01-07T03:18:09;-1.90;99.90
26107;DHT22;13866;50.748;12.630;2024-01-07T03:20:35;-2.00;99.90
26107;DHT22;13866;50.748;12.630;2024-01-07T03:23:01;-2.10;99.90
26107;DHT22;13866;50.748;12.630;2024-01-07T03:25:26;-2.10;99.90
26107;DHT22;13866;50.748;12.630;2024-01-07T03:27:52;-2.00;99.90
26107;DHT22;13866;50.748;12.630;2024-01-07T03:30:17;-2.10;99.90
26107;DHT22;13866;50.748;12.630;2024-01-07T03:32:43;-2.00;99.90
26107;DHT22;13866;50.748;12.630;2024-01-07T03:35:08;-2.10;99.90
26107;DHT22;13866;50.748;12.630;2024-01-07T03:37:34;-2.10;99.90
26107;DHT22;13866;50.748;12.630;2024-01-07T03:40:00;-2.20;99.90
26107;DHT22;13866;50.748;12.630;2024-01-07T03:42:25;-2.20;99.90
26107;DHT22;13866;50.748;12.630;2024-01-07T03:44:51;-2.20;99.90
26107;DHT22;13866;50.748;12.630;2024-01-07T03:47:16;-2.30;99.90
26107;DHT22;13866;50.748;12.630;2024-01-07T03:49:42;-2.20;99.90
26107;DHT22;13866;50.748;12.630;2024-01-07T03:52:08;-2.20;99.90
26107;DHT22;13866;50.748;12.630;2024-01-07T03:54:33;-2.20;99.90
26107;DHT22;13866;50.748;12.630;2024-01-07T03:56:59;-2.20;99.90
26107;DHT22;13866;50.748;12.630;2024-01-07T03:59:24;-2.30;99.90
26107;DHT22;13866;50.748;12.630;2024-01-07T04:01:52;-2.40;99.90
26107;DHT22;13866;50.748;12.630;2024-01-07T04:04:18;-2.40;99.90
26107;DHT22;13866;50.748;12.630;2024-01-07T04:06:43;-2.40;99.90
26107;DHT22;13866;50.748;12.630;2024-01-07T04:09:09;-2.40;99.90
26107;DHT22;13866;50.748;12.630;2024-01-07T04:11:40;-2.50;99.90
26107;DHT22;13866;50.748;12.630;2024-01-07T04:14:06;-2.60;99.90
26107;DHT22;13866;50.748;12.630;2024-01-07T04:16:31;-2.50;99.90
26107;DHT22;13866;50.748;12.630;2024-01-07T04:18:57;-2.60;99.90
26107;DHT22;13866;50.748;12.630;2024-01-07T04:21:22;-2.60;99.90
26107;DHT22;13866;50.748;12.630;2024-01-07T04:23:47;-2.60;99.90
26107;DHT22;13866;50.748;12.630;2024-01-07T04:26:13;-2.60;99.90
26107;DHT22;13866;50.748;12.630;2024-01-07T04:28:41;-2.60;99.90
26107;DHT22;13866;50.748;12.630;2024-01-07T04:31:07;-2.50;99.90
26107;DHT22;13866;50.748;12.630;2024-01-07T04:33:33;-2.60;99.90
26107;DHT22;13866;50.748;12.630;2024-01-07T04:35:58;-2.60;99.90
26107;DHT22;13866;50.748;12.630;2024-01-07T04:38:28;-2.60;99.90
26107;DHT22;13866;50.748;12.630;2024-01-07T04:40:54;-2.60;99.90
26107;DHT22;13866;50.748;12.630;2024-01-07T04:43:19;-2.60;99.90
26107;DHT22;13866;50.748;12.630;2024-01-07T04:45:45;-2.50;99.90
26107;DHT22;13866;50.748;12.630;2024-01-07T04:48:11;-2.50;99.90
26107;DHT22;13866;50.748;12.630;2024-01-07T04:50:36;-2.60;99.90
26107;DHT22;13866;50.748;12.630;2024-01-07T04:53:02;-2.60;99.90
26107;DHT22;13866;50.748;12.630;2024-01-07T04:55:29;-2.60;99.90
26107;DHT22;13866;50.748;12.630;2024-01-07T04:57:55;-2.50;99.90
26107;DHT22;13866;50.748;12.630;2024-01-07T05:00:20;-2.70;99.90
26107;DHT22;13866;50.748;12.630;2024-01-07T05:02:46;-2.70;99.90
26107;DHT22;13866;50.748;12.630;2024-01-07T05:05:11;-2.80;99.90
26107;DHT22;13866;50.748;12.630;2024-01-07T05:07:37;-2.80;99.90
26107;DHT22;13866;50.748;12.630;2024-01-07T05:10:03;-2.80;99.90
26107;DHT22;13866;50.748;12.630;2024-01-07T05:12:29;-2.80;99.90
26107;DHT22;13866;50.748;12.630;2024-01-07T05:14:54;-2.80;99.90
26107;DHT22;13866;50.748;12.630;2024-01-07T05:17:20;-3.00;99.90
26107;DHT22;13866;50.748;12.630;2024-01-07T05:19:45;-2.90;99.90
26107;DHT22;13866;50.748;12.630;2024-01-07T05:22:11;-2.90;99.90
26107;DHT22;13866;50.748;12.630;2024-01-07T05:24:37;-2.80;99.90
26107;DHT22;13866;50.748;12.630;2024-01-07T05:27:04;-2.90;99.90
26107;DHT22;13866;50.748;12.630;2024-01-07T05:29:29;-2.90;99.90
26107;DHT22;13866;50.748;12.630;2024-01-07T05:31:55;-2.90;99.90
26107;DHT22;13866;50.748;12.630;2024-01-07T05:34:20;-2.90;99.90
26107;DHT22;13866;50.748;12.630;2024-01-07T05:36:46;-2.90;99.90
26107;DHT22;13866;50.748;12.630;2024-01-07T05:39:11;-3.00;99.90
26107;DHT22;13866;50.748;12.630;2024-01-07T05:41:37;-3.00;99.90
26107;DHT22;13866;50.748;12.630;2024-01-07T05:44:07;-2.90;99.90
26107;DHT22;13866;50.748;12.630;2024-01-07T05:46:33;-2.90;99.90
26107;DHT22;13866;50.748;12.630;2024-01-07T05:48:59;-2.90;99.90
26107;DHT22;13866;50.748;12.630;2024-01-07T05:51:24;-2.90;99.90
26107;DHT22;13866;50.748;12.630;2024-01-07T05:53:50;-2.90;99.90
26107;DHT22;13866;50.748;12.630;2024-01-07T05:56:16;-2.90;99.90
26107;DHT22;13866;50.748;12.630;2024-01-07T05:58:41;-2.90;99.90
26107;DHT22;13866;50.748;12.630;2024-01-07T06:01:07;-2.90;99.90
26107;DHT22;13866;50.748;12.630;2024-01-07T06:03:33;-2.80;99.90
26107;DHT22;13866;50.748;12.630;2024-01-07T06:05:59;-2.80;99.90
26107;DHT22;13866;50.748;12.630;2024-01-07T06:08:28;-2.90;99.90
26107;DHT22;13866;50.748;12.630;2024-01-07T06:10:53;-2.80;99.90
26107;DHT22;13866;50.748;12.630;2024-01-07T06:13:19;-2.80;99.90
26107;DHT22;13866;50.748;12.630;2024-01-07T06:15:44;-2.90;99.90
26107;DHT22;13866;50.748;12.630;2024-01-07T06:18:10;-3.00;99.90
26107;DHT22;13866;50.748;12.630;2024-01-07T06:20:36;-3.00;99.90
26107;DHT22;13866;50.748;12.630;2024-01-07T06:23:01;-3.00;99.90
26107;DHT22;13866;50.748;12.630;2024-01-07T06:25:27;-2.90;99.90
26107;DHT22;13866;50.748;12.630;2024-01-07T06:27:52;-3.00;99.90
26107;DHT22;13866;50.748;12.630;2024-01-07T06:30:18;-3.00;99.90
26107;DHT22;13866;50.748;12.630;2024-01-07T06:32:44;-3.00;99.90
26107;DHT22;13866;50.748;12.630;2024-01-07T06:35:11;-3.00;99.90
26107;DHT22;13866;50.748;12.630;2024-01-07T06:37:36;-3.00;99.90
26107;DHT22;13866;50.748;12.630;2024-01-07T06:40:02;-2.90;99.90
26107;DHT22;13866;50.748;12.630;2024-01-07T06:42:28;-3.00;99.90
26107;DHT22;13866;50.748;12.630;2024-01-07T06:44:53;-3.00;99.90
26107;DHT22;13866;50.748;12.630;2024-01-07T06:47:19;-3.00;99.90
26107;DHT22;13866;50.748;12.630;2024-01-07T06:49:44;-3.00;99.90
26107;DHT22;13866;50.748;12.630;2024-01-07T06:52:10;-3.10;99.90
26107;DHT22;13866;50.748;12.630;2024-01-07T06:54:36;-3.10;99.90
26107;DHT22;13866;50.748;12.630;2024-01-07T06:57:01;-3.20;99.90
26107;DHT22;13866;50.748;12.630;2024-01-07T06:59:27;-3.20;99.90
26107;DHT22;13866;50.748;12.630;2024-01-07T07:01:53;-3.20;99.90
26107;DHT22;13866;50.748;12.630;2024-01-07T07:04:21;-3.20;99.90
26107;DHT22;13866;50.748;12.630;2024-01-07T07:06:47;-3.20;99.90
26107;DHT22;13866;50.748;12.630;2024-01-07T07:09:13;-3.20;99.90
26107;DHT22;13866;50.748;12.630;2024-01-07T07:11:40;-3.20;99.90
26107;DHT22;13866;50.748;12.630;2024-01-07T07:14:05;-3.20;99.90
26107;DHT22;13866;50.748;12.630;2024-01-07T07:16:31;-3.10;99.90
26107;DHT22;13866;50.748;12.630;2024-01-07T07:18:57;-3.20;99.90
26107;DHT22;13866;50.748;12.630;2024-01-07T07:21:22;-3.20;99.90
26107;DHT22;13866;50.748;12.630;2024-01-07T07:23:48;-3.20;99.90
26107;DHT22;13866;50.748;12.630;2024-01-07T07:26:13;-3.20;99.90
26107;DHT22;13866;50.748;12.630;2024-01-07T07:28:39;-3.20;99.90
26107;DHT22;13866;50.748;12.630;2024-01-07T07:31:04;-3.20;99.90
26107;DHT22;13866;50.748;12.630;2024-01-07T07:33:30;-3.10;99.90
26107;DHT22;13866;50.748;12.630;2024-01-07T07:35:55;-3.10;99.90
26107;DHT22;13866;50.748;12.630;2024-01-07T07:38:21;-3.10;99.90
26107;DHT22;13866;50.748;12.630;2024-01-07T07:40:46;-3.10;99.90
26107;DHT22;13866;50.748;12.630;2024-01-07T07:43:18;-3.00;99.90
26107;DHT22;13866;50.748;12.630;2024-01-07T07:45:44;-3.00;75.20
26107;DHT22;13866;50.748;12.630;2024-01-07T07:48:09;-3.00;64.90
26107;DHT22;13866;50.748;12.630;2024-01-07T07:50:35;-3.00;66.40
26107;DHT22;13866;50.748;12.630;2024-01-07T07:53:00;-3.00;91.00
26107;DHT22;13866;50.748;12.630;2024-01-07T07:55:26;-3.10;57.20
26107;DHT22;13866;50.748;12.630;2024-01-07T07:57:52;-3.10;47.70
26107;DHT22;13866;50.748;12.630;2024-01-07T08:00:18;-3.20;54.70
26107;DHT22;13866;50.748;12.630;2024-01-07T08:02:43;-3.20;71.60
26107;DHT22;13866;50.748;12.630;2024-01-07T08:05:09;-3.20;75.20
26107;DHT22;13866;50.748;12.630;2024-01-07T08:07:34;-3.30;61.70
26107;DHT22;13866;50.748;12.630;2024-01-07T08:10:00;-3.20;75.00
26107;DHT22;13866;50.748;12.630;2024-01-07T08:12:25;-3.30;38.30
26107;DHT22;13866;50.748;12.630;2024-01-07T08:14:50;-3.20;56.70
26107;DHT22;13866;50.748;12.630;2024-01-07T08:17:16;-3.30;32.90
26107;DHT22;13866;50.748;12.630;2024-01-07T08:19:42;-3.20;43.40
26107;DHT22;13866;50.748;12.630;2024-01-07T08:22:07;-3.20;30.70
26107;DHT22;13866;50.748;12.630;2024-01-07T08:24:34;-3.20;20.50
26107;DHT22;13866;50.748;12.630;2024-01-07T08:27:00;-3.20;26.70
26107;DHT22;13866;50.748;12.630;2024-01-07T08:29:26;-3.30;41.50
26107;DHT22;13866;50.748;12.630;2024-01-07T08:31:51;-3.30;39.20
26107;DHT22;13866;50.748;12.630;2024-01-07T08:34:17;-3.30;21.30
26107;DHT22;13866;50.748;12.630;2024-01-07T08:36:43;-3.30;7.50
26107;DHT22;13866;50.748;12.630;2024-01-07T08:39:08;-3.30;9.50
26107;DHT22;13866;50.748;12.630;2024-01-07T08:41:34;-3.30;12.90
26107;DHT22;13866;50.748;12.630;2024-01-07T08:43:59;-3.30;8.80
26107;DHT22;13866;50.748;12.630;2024-01-07T08:46:25;-3.30;4.40
26107;DHT22;13866;50.748;12.630;2024-01-07T08:48:50;-3.30;1.00
26107;DHT22;13866;50.748;12.630;2024-01-07T08:51:16;-3.30;1.00
26107;DHT22;13866;50.748;12.630;2024-01-07T08:53:41;-3.20;1.00
26107;DHT22;13866;50.748;12.630;2024-01-07T08:56:07;-3.30;1.00
26107;DHT22;13866;50.748;12.630;2024-01-07T08:58:32;-3.40;1.00
26107;DHT22;13866;50.748;12.630;2024-01-07T09:00:58;-3.40;1.00
26107;DHT22;13866;50.748;12.630;2024-01-07T09:03:24;-3.40;1.00
26107;DHT22;13866;50.748;12.630;2024-01-07T09:05:49;-3.30;1.00
26107;DHT22;13866;50.748;12.630;2024-01-07T09:08:14;-3.30;1.00
26107;DHT22;13866;50.748;12.630;2024-01-07T09:10:40;-3.30;1.00
26107;DHT22;13866;50.748;12.630;2024-01-07T09:13:06;-3.20;1.00
26107;DHT22;13866;50.748;12.630;2024-01-07T09:15:31;-3.30;1.00
26107;DHT22;13866;50.748;12.630;2024-01-07T09:17:57;-3.20;1.00
26107;DHT22;13866;50.748;12.630;2024-01-07T09:20:23;-3.20;1.00
26107;DHT22;13866;50.748;12.630;2024-01-07T09:22:48;-3.20;1.00
26107;DHT22;13866;50.748;12.630;2024-01-07T09:25:14;-3.40;1.00
26107;DHT22;13866;50.748;12.630;2024-01-07T09:27:39;-3.30;6.40
26107;DHT22;13866;50.748;12.630;2024-01-07T09:30:05;-3.30;3.20
26107;DHT22;13866;50.748;12.630;2024-01-07T09:32:31;-3.30;1.00
26107;DHT22;13866;50.748;12.630;2024-01-07T09:34:57;-3.40;1.00
26107;DHT22;13866;50.748;12.630;2024-01-07T09:37:23;-3.40;6.20
26107;DHT22;13866;50.748;12.630;2024-01-07T09:39:48;-3.40;9.20
26107;DHT22;13866;50.748;12.630;2024-01-07T09:42:18;-3.50;1.00
26107;DHT22;13866;50.748;12.630;2024-01-07T09:44:44;-3.50;15.40
26107;DHT22;13866;50.748;12.630;2024-01-07T09:47:11;-3.50;14.10
26107;DHT22;13866;50.748;12.630;2024-01-07T09:49:38;-3.40;4.00
26107;DHT22;13866;50.748;12.630;2024-01-07T09:52:04;-3.40;1.00
26107;DHT22;13866;50.748;12.630;2024-01-07T09:54:31;-3.40;1.00
26107;DHT22;13866;50.748;12.630;2024-01-07T09:57:06;-3.30;1.00
26107;DHT22;13866;50.748;12.630;2024-01-07T09:59:34;-3.30;1.00
26107;DHT22;13866;50.748;12.630;2024-01-07T10:02:00;-3.30;1.00
26107;DHT22;13866;50.748;12.630;2024-01-07T10:04:26;-3.50;1.00
26107;DHT22;13866;50.748;12.630;2024-01-07T10:06:53;-3.50;1.00
26107;DHT22;13866;50.748;12.630;2024-01-07T10:09:20;-3.50;1.00
26107;DHT22;13866;50.748;12.630;2024-01-07T10:11:47;-3.50;1.00
26107;DHT22;13866;50.748;12.630;2024-01-07T10:14:12;-3.50;1.00
26107;DHT22;13866;50.748;12.630;2024-01-07T10:16:39;-3.50;1.00
26107;DHT22;13866;50.748;12.630;2024-01-07T10:19:04;-3.50;1.00
26107;DHT22;13866;50.748;12.630;2024-01-07T10:21:30;-3.50;1.00
26107;DHT22;13866;50.748;12.630;2024-01-07T10:24:12;-3.50;1.00
26107;DHT22;13866;50.748;12.630;2024-01-07T10:26:38;-3.30;1.00
26107;DHT22;13866;50.748;12.630;2024-01-07T10:29:05;-3.30;1.00
26107;DHT22;13866;50.748;12.630;2024-01-07T10:31:32;-3.40;1.00
26107;DHT22;13866;50.748;12.630;2024-01-07T10:34:06;-3.60;1.00
26107;DHT22;13866;50.748;12.630;2024-01-07T10:36:32;-3.50;1.00
26107;DHT22;13866;50.748;12.630;2024-01-07T10:38:58;-3.60;1.00
26107;DHT22;13866;50.748;12.630;2024-01-07T10:41:27;-3.70;1.00
26107;DHT22;13866;50.748;12.630;2024-01-07T10:43:58;-3.60;1.00
26107;DHT22;13866;50.748;12.630;2024-01-07T10:46:31;-3.70;1.00
26107;DHT22;13866;50.748;12.630;2024-01-07T10:49:07;-3.70;1.00
26107;DHT22;13866;50.748;12.630;2024-01-07T10:51:38;-3.70;1.00
26107;DHT22;13866;50.748;12.630;2024-01-07T10:54:14;-3.60;1.00
26107;DHT22;13866;50.748;12.630;2024-01-07T10:56:49;-3.70;1.00
26107;DHT22;13866;50.748;12.630;2024-01-07T10:59:21;-3.70;1.00
26107;DHT22;13866;50.748;12.630;2024-01-07T11:01:51;-3.70;1.00
26107;DHT22;13866;50.748;12.630;2024-01-07T11:04:20;-3.80;1.00
26107;DHT22;13866;50.748;12.630;2024-01-07T11:07:00;-3.80;1.00
26107;DHT22;13866;50.748;12.630;2024-01-07T11:10:14;-3.70;1.00
26107;DHT22;13866;50.748;12.630;2024-01-07T11:12:43;-3.80;1.00
26107;DHT22;13866;50.748;12.630;2024-01-07T11:15:09;-3.70;1.00
26107;DHT22;13866;50.748;12.630;2024-01-07T11:20:07;-3.80;1.00
26107;DHT22;13866;50.748;12.630;2024-01-07T11:22:38;-3.80;1.00
26107;DHT22;13866;50.748;12.630;2024-01-07T11:25:28;-3.80;1.00
26107;DHT22;13866;50.748;12.630;2024-01-07T11:27:57;-3.90;1.00
26107;DHT22;13866;50.748;12.630;2024-01-07T11:30:24;-3.80;1.00
26107;DHT22;13866;50.748;12.630;2024-01-07T11:32:56;-3.90;1.00
26107;DHT22;13866;50.748;12.630;2024-01-07T11:35:55;-4.00;1.00
26107;DHT22;13866;50.748;12.630;2024-01-07T11:38:24;-3.90;1.00
26107;DHT22;13866;50.748;12.630;2024-01-07T11:40:50;-3.90;1.00
26107;DHT22;13866;50.748;12.630;2024-01-07T11:43:16;-4.00;1.00
26107;DHT22;13866;50.748;12.630;2024-01-07T11:45:42;-4.10;1.00
26107;DHT22;13866;50.748;12.630;2024-01-07T11:48:07;-4.10;1.00
26107;DHT22;13866;50.748;12.630;2024-01-07T11:50:35;-3.90;1.00
26107;DHT22;13866;50.748;12.630;2024-01-07T11:53:01;-4.00;1.00
26107;DHT22;13866;50.748;12.630;2024-01-07T11:55:28;-4.00;1.00
26107;DHT22;13866;50.748;12.630;2024-01-07T11:57:55;-4.00;99.90
26107;DHT22;13866;50.748;12.630;2024-01-07T12:00:21;-4.00;99.90
26107;DHT22;13866;50.748;12.630;2024-01-07T12:02:47;-4.10;99.90
26107;DHT22;13866;50.748;12.630;2024-01-07T12:05:12;-4.00;99.90
26107;DHT22;13866;50.748;12.630;2024-01-07T12:07:41;-4.00;99.90
26107;DHT22;13866;50.748;12.630;2024-01-07T12:10:09;-4.00;99.90
26107;DHT22;13866;50.748;12.630;2024-01-07T12:12:42;-4.00;99.90
26107;DHT22;13866;50.748;12.630;2024-01-07T12:15:10;-4.00;99.90
26107;DHT22;13866;50.748;12.630;2024-01-07T12:17:39;-4.00;1.00
26107;DHT22;13866;50.748;12.630;2024-01-07T12:20:05;-4.00;1.00
26107;DHT22;13866;50.748;12.630;2024-01-07T12:22:33;-3.90;1.00
26107;DHT22;13866;50.748;12.630;2024-01-07T12:25:07;-4.00;1.00
26107;DHT22;13866;50.748;12.630;2024-01-07T12:27:34;-4.00;1.00
26107;DHT22;13866;50.748;12.630;2024-01-07T12:30:01;-4.00;1.00
26107;DHT22;13866;50.748;12.630;2024-01-07T12:32:27;-4.00;1.00
26107;DHT22;13866;50.748;12.630;2024-01-07T12:34:52;-4.00;1.00
26107;DHT22;13866;50.748;12.630;2024-01-07T12:37:18;-4.00;1.00
26107;DHT22;13866;50.748;12.630;2024-01-07T12:39:44;-4.00;1.00
26107;DHT22;13866;50.748;12.630;2024-01-07T12:42:10;-4.20;1.00
26107;DHT22;13866;50.748;12.630;2024-01-07T12:44:38;-4.10;1.00
26107;DHT22;13866;50.748;12.630;2024-01-07T12:47:05;-4.10;1.00
26107;DHT22;13866;50.748;12.630;2024-01-07T12:49:30;-4.10;1.00
26107;DHT22;13866;50.748;12.630;2024-01-07T12:51:56;-4.10;1.00
26107;DHT22;13866;50.748;12.630;2024-01-07T12:54:22;-4.10;1.00
26107;DHT22;13866;50.748;12.630;2024-01-07T12:56:49;-4.10;1.00
26107;DHT22;13866;50.748;12.630;2024-01-07T12:59:14;-4.10;99.90
26107;DHT22;13866;50.748;12.630;2024-01-07T13:01:40;-4.10;99.90
26107;DHT22;13866;50.748;12.630;2024-01-07T13:04:05;-4.10;99.90
26107;DHT22;13866;50.748;12.630;2024-01-07T13:06:31;-4.10;99.90
26107;DHT22;13866;50.748;12.630;2024-01-07T13:08:56;-4.20;90.00
26107;DHT22;13866;50.748;12.630;2024-01-07T13:11:22;-4.20;1.00
26107;DHT22;13866;50.748;12.630;2024-01-07T13:13:47;-4.30;99.90
26107;DHT22;13866;50.748;12.630;2024-01-07T13:16:13;-4.30;1.00
26107;DHT22;13866;50.748;12.630;2024-01-07T13:18:38;-4.40;99.90
26107;DHT22;13866;50.748;12.630;2024-01-07T13:21:04;-4.40;99.90
26107;DHT22;13866;50.748;12.630;2024-01-07T13:23:31;-4.40;99.90
26107;DHT22;13866;50.748;12.630;2024-01-07T13:25:58;-4.40;99.90
26107;DHT22;13866;50.748;12.630;2024-01-07T13:28:23;-4.40;1.00
26107;DHT22;13866;50.748;12.630;2024-01-07T13:30:49;-4.50;99.90
26107;DHT22;13866;50.748;12.630;2024-01-07T13:33:15;-4.40;99.90
26107;DHT22;13866;50.748;12.630;2024-01-07T13:35:43;-4.30;99.90
26107;DHT22;13866;50.748;12.630;2024-01-07T13:38:08;-4.30;1.00
26107;DHT22;13866;50.748;12.630;2024-01-07T13:40:35;-4.30;99.90
26107;DHT22;13866;50.748;12.630;2024-01-07T13:43:00;-4.30;1.00
26107;DHT22;13866;50.748;12.630;2024-01-07T13:45:26;-4.30;1.00
26107;DHT22;13866;50.748;12.630;2024-01-07T13:47:51;-4.20;99.90
26107;DHT22;13866;50.748;12.630;2024-01-07T13:50:17;-4.30;49.10
26107;DHT22;13866;50.748;12.630;2024-01-07T13:52:43;-4.20;1.00
26107;DHT22;13866;50.748;12.630;2024-01-07T13:55:09;-4.20;99.90
26107;DHT22;13866;50.748;12.630;2024-01-07T13:57:35;-4.20;1.00
26107;DHT22;13866;50.748;12.630;2024-01-07T14:00:01;-4.20;1.00
26107;DHT22;13866;50.748;12.630;2024-01-07T14:02:33;-4.20;1.00
26107;DHT22;13866;50.748;12.630;2024-01-07T14:04:59;-4.20;1.00
26107;DHT22;13866;50.748;12.630;2024-01-07T14:07:24;-4.30;46.30
26107;DHT22;13866;50.748;12.630;2024-01-07T14:09:51;-4.30;99.90
26107;DHT22;13866;50.748;12.630;2024-01-07T14:12:17;-4.20;99.90
26107;DHT22;13866;50.748;12.630;2024-01-07T14:14:43;-4.20;99.90
26107;DHT22;13866;50.748;12.630;2024-01-07T14:17:08;-4.20;99.90
26107;DHT22;13866;50.748;12.630;2024-01-07T14:19:34;-4.10;99.90
26107;DHT22;13866;50.748;12.630;2024-01-07T14:21:59;-4.10;1.00
26107;DHT22;13866;50.748;12.630;2024-01-07T14:24:26;-4.10;1.00
26107;DHT22;13866;50.748;12.630;2024-01-07T14:26:51;-4.10;99.90
26107;DHT22;13866;50.748;12.630;2024-01-07T14:29:17;-4.10;99.90
26107;DHT22;13866;50.748;12.630;2024-01-07T14:31:42;-4.10;1.00
26107;DHT22;13866;50.748;12.630;2024-01-07T14:34:08;-4.10;1.00
26107;DHT22;13866;50.748;12.630;2024-01-07T14:36:33;-4.10;1.00
26107;DHT22;13866;50.748;12.630;2024-01-07T14:38:59;-4.00;99.90
26107;DHT22;13866;50.748;12.630;2024-01-07T14:41:24;-4.10;99.90
26107;DHT22;13866;50.748;12.630;2024-01-07T14:43:49;-4.10;99.90
26107;DHT22;13866;50.748;12.630;2024-01-07T14:46:15;-4.10;1.00
26107;DHT22;13866;50.748;12.630;2024-01-07T14:48:41;-4.10;1.00
26107;DHT22;13866;50.748;12.630;2024-01-07T14:51:06;-4.10;99.90
26107;DHT22;13866;50.748;12.630;2024-01-07T14:53:32;-4.10;99.90
26107;DHT22;13866;50.748;12.630;2024-01-07T14:55:58;-4.10;99.90
26107;DHT22;13866;50.748;12.630;2024-01-07T14:58:24;-4.00;99.90
26107;DHT22;13866;50.748;12.630;2024-01-07T15:00:50;-4.00;17.00
26107;DHT22;13866;50.748;12.630;2024-01-07T15:09:13;-4.00;99.90
26107;DHT22;13866;50.748;12.630;2024-01-07T15:11:41;-4.10;1.00
26107;DHT22;13866;50.748;12.630;2024-01-07T15:14:09;-4.10;37.20
26107;DHT22;13866;50.748;12.630;2024-01-07T15:16:35;-4.10;1.00
26107;DHT22;13866;50.748;12.630;2024-01-07T15:19:01;-4.10;1.00
26107;DHT22;13866;50.748;12.630;2024-01-07T15:21:27;-4.10;18.10
26107;DHT22;13866;50.748;12.630;2024-01-07T15:23:52;-4.10;99.90